Skip Navigation Links
NOAA logo - Click to go to the NOAA homepage
NOAA's National Weather Service
Alaska Aviation Weather Unit
  NWS logo - Click to go to the NWS homepage
Left Navbar Graphic     03 AKDT = 11 GMT

   
NOAA is celebrating 200 years of science, service, and stewardship. Visit the NOAA 200th celebration Web site to learn more.
USA.gov is the U.S. Government's official Web portal to all Federal, state and local government Web resources and services.
Facebook
NWS on Facebook

AAWU Home :: Display TAF Add Bookmark
TAF CYYE 290638Z 2907/2919 VRB03KT P6SM FEW015 SCT170 TEMPO 2907/2915
     BKN015
    RMK NXT FCST BY 291300Z=

METAR CYYE 290500Z 31004KT 15SM FEW200 M03/M06 A2986 RMK CI1 AURBO SLP141= METAR CYYE 290600Z 32003KT 15SM FEW170 M05/M06 A2986 RMK AS1 SLP140= METAR CYYE 290700Z 00000KT 15SM FEW160 M06/M07 A2986 RMK AS1 SLP141= METAR CYYE 290800Z 00000KT 15SM FEW160 M05/M06 A2987 RMK AS2 SLP141= METAR CYYE 290900Z 30002KT 15SM SCT170 M07/M08 A2986 RMK AS3 AURBO SLP140= METAR CYYE 291000Z 29002KT 15SM FEW180 M09/M09 A2986 RMK AS2 AURBO SLP139= METAR CYYE 291100Z 26002KT 15SM FEW180 M10/M11 A2986 RMK AS2 SLP139=
 Alaska TAF Map

NOAA's National Weather Service
Alaska Aviation Weather Unit
6930 Sand Lake Road
Anchorage, AK 99502-1845
Disclaimer
Credits
Glossary
Privacy Policy
About Us
Career Opportunities
Contact AAWU Internet Services Site last modified: April, 17th 2012